createdAt,value
2023-02-08T00:01:25.446Z,-4.10
2023-02-08T00:03:54.558Z,-4.12
2023-02-08T00:06:23.074Z,-4.15
2023-02-08T00:08:51.247Z,-4.19
2023-02-08T00:11:19.627Z,-4.21
2023-02-08T00:13:48.148Z,-4.18
2023-02-08T00:16:16.750Z,-4.15
2023-02-08T00:18:45.898Z,-4.15
2023-02-08T00:21:16.553Z,-4.18
2023-02-08T00:23:46.555Z,-4.19
2023-02-08T00:26:15.158Z,-4.18
2023-02-08T00:28:44.494Z,-4.19
2023-02-08T00:31:12.962Z,-4.17
2023-02-08T00:33:42.804Z,-4.20
2023-02-08T00:36:11.514Z,-4.24
2023-02-08T00:38:45.989Z,-4.25
2023-02-08T00:41:14.381Z,-4.25
2023-02-08T00:43:45.853Z,-4.26
2023-02-08T00:46:15.454Z,-4.25
2023-02-08T00:48:47.631Z,-4.24
2023-02-08T00:51:16.110Z,-4.24
2023-02-08T00:53:45.176Z,-4.27
2023-02-08T00:56:14.168Z,-4.29
2023-02-08T00:58:42.875Z,-4.31
2023-02-08T01:01:12.708Z,-4.31
2023-02-08T01:03:42.321Z,-4.31
2023-02-08T01:06:17.326Z,-4.30
2023-02-08T01:08:47.379Z,-4.28
2023-02-08T01:11:23.012Z,-4.26
2023-02-08T01:13:54.469Z,-4.26
2023-02-08T01:16:33.198Z,-4.25
2023-02-08T01:19:02.810Z,-4.25
2023-02-08T01:21:33.277Z,-4.23
2023-02-08T01:24:01.590Z,-4.20
2023-02-08T01:26:32.425Z,-4.18
2023-02-08T01:29:00.813Z,-4.22
2023-02-08T01:31:34.523Z,-4.24
2023-02-08T01:34:03.337Z,-4.24
2023-02-08T01:36:33.215Z,-4.23
2023-02-08T01:39:02.396Z,-4.22
2023-02-08T01:41:38.038Z,-4.22
2023-02-08T01:44:09.304Z,-4.22
2023-02-08T01:46:39.134Z,-4.20
2023-02-08T01:49:45.950Z,-4.17
2023-02-08T01:52:17.378Z,-4.18
2023-02-08T01:54:55.128Z,-4.20
2023-02-08T01:57:23.780Z,-4.21
2023-02-08T01:59:55.094Z,-4.23
2023-02-08T02:02:23.998Z,-4.24
2023-02-08T02:04:52.302Z,-4.22
2023-02-08T02:07:21.034Z,-4.20
2023-02-08T02:10:20.779Z,-4.20
2023-02-08T02:12:49.941Z,-4.22
2023-02-08T02:15:18.299Z,-4.24
2023-02-08T02:17:47.143Z,-4.27
2023-02-08T02:20:28.792Z,-4.29
2023-02-08T02:23:33.772Z,-4.29
2023-02-08T02:26:14.692Z,-4.29
2023-02-08T02:28:45.637Z,-4.29
2023-02-08T02:31:22.875Z,-4.27
2023-02-08T02:34:18.330Z,-4.28
2023-02-08T02:36:53.220Z,-4.28
2023-02-08T02:39:28.073Z,-4.28
2023-02-08T02:42:17.756Z,-4.24
2023-02-08T02:44:56.832Z,-4.19
2023-02-08T02:47:25.054Z,-4.18
2023-02-08T02:50:15.317Z,-4.18
2023-02-08T02:52:48.520Z,-4.20
2023-02-08T02:55:17.720Z,-4.25
2023-02-08T02:57:46.543Z,-4.25
2023-02-08T03:00:19.926Z,-4.23
2023-02-08T03:02:48.134Z,-4.22
2023-02-08T03:05:16.342Z,-4.22
2023-02-08T03:08:10.590Z,-4.22
2023-02-08T03:10:47.914Z,-4.21
2023-02-08T03:14:25.894Z,-4.21
2023-02-08T03:17:07.891Z,-4.18
2023-02-08T03:19:39.651Z,-4.13
2023-02-08T03:22:26.500Z,-4.10
2023-02-08T03:24:56.033Z,-4.07
2023-02-08T03:27:38.989Z,-4.06
2023-02-08T03:30:13.337Z,-4.02
2023-02-08T03:32:43.425Z,-3.99
2023-02-08T03:35:23.070Z,-3.97
2023-02-08T03:37:55.577Z,-3.94
2023-02-08T03:40:33.149Z,-3.95
2023-02-08T03:43:03.821Z,-3.95
2023-02-08T03:45:33.893Z,-3.95
2023-02-08T03:48:04.067Z,-3.97
2023-02-08T03:50:35.046Z,-3.99
2023-02-08T03:53:03.631Z,-3.99
2023-02-08T03:55:33.971Z,-3.98
2023-02-08T03:58:18.603Z,-3.98
2023-02-08T04:01:00.553Z,-4.02
2023-02-08T04:03:29.126Z,-4.06
2023-02-08T04:05:57.337Z,-4.08
2023-02-08T04:08:25.544Z,-4.08
2023-02-08T04:10:54.454Z,-4.06
2023-02-08T04:13:23.496Z,-4.05
2023-02-08T04:15:51.819Z,-4.04
2023-02-08T04:18:20.094Z,-4.03
2023-02-08T04:20:48.794Z,-4.00
2023-02-08T04:23:17.028Z,-4.02
2023-02-08T04:25:45.321Z,-4.01
2023-02-08T04:28:13.564Z,-4.03
2023-02-08T04:30:42.271Z,-4.03
2023-02-08T04:33:13.209Z,-4.00
2023-02-08T04:35:42.486Z,-3.98
2023-02-08T04:38:11.023Z,-3.98
2023-02-08T04:40:39.842Z,-3.99
2023-02-08T04:43:08.242Z,-4.01
2023-02-08T04:45:37.864Z,-4.05
2023-02-08T04:48:07.499Z,-4.09
2023-02-08T04:50:36.531Z,-4.13
2023-02-08T04:53:06.581Z,-4.18
2023-02-08T04:55:35.020Z,-4.23
2023-02-08T04:58:04.859Z,-4.25
2023-02-08T05:00:33.643Z,-4.28
2023-02-08T05:03:01.965Z,-4.30
2023-02-08T05:05:30.775Z,-4.30
2023-02-08T05:08:00.126Z,-4.29
2023-02-08T05:10:28.686Z,-4.29
2023-02-08T05:12:56.925Z,-4.29
2023-02-08T05:15:25.283Z,-4.29
2023-02-08T05:17:53.704Z,-4.30
2023-02-08T05:20:21.969Z,-4.30
2023-02-08T05:22:50.202Z,-4.31
2023-02-08T05:25:18.858Z,-4.34
2023-02-08T05:27:47.742Z,-4.36
2023-02-08T05:30:16.680Z,-4.35
2023-02-08T05:32:44.915Z,-4.34
2023-02-08T05:35:13.176Z,-4.33
2023-02-08T05:37:41.935Z,-4.33
2023-02-08T05:40:11.356Z,-4.32
2023-02-08T05:42:40.120Z,-4.33
2023-02-08T05:45:08.620Z,-4.35
2023-02-08T05:47:37.037Z,-4.38
2023-02-08T05:50:05.835Z,-4.41
2023-02-08T05:52:34.458Z,-4.44
2023-02-08T05:55:03.284Z,-4.46
2023-02-08T05:57:33.614Z,-4.44
2023-02-08T06:00:04.952Z,-4.42
2023-02-08T06:02:34.363Z,-4.44
2023-02-08T06:05:02.898Z,-4.46
2023-02-08T06:07:31.155Z,-4.46
2023-02-08T06:10:00.342Z,-4.44
2023-02-08T06:12:28.569Z,-4.44
2023-02-08T06:15:00.342Z,-4.44
2023-02-08T06:17:28.637Z,-4.42
2023-02-08T06:19:56.992Z,-4.41
2023-02-08T06:22:25.401Z,-4.37
2023-02-08T06:24:53.847Z,-4.33
2023-02-08T06:27:22.054Z,-4.30
2023-02-08T06:29:50.296Z,-4.29
2023-02-08T06:32:18.728Z,-4.28
2023-02-08T06:34:48.449Z,-4.26
2023-02-08T06:37:17.574Z,-4.26
2023-02-08T06:39:46.240Z,-4.27
2023-02-08T10:21:02.718Z,-0.91
2023-02-08T10:23:33.057Z,-0.74
2023-02-08T10:26:09.611Z,-0.76
2023-02-08T10:29:03.368Z,-0.79
2023-02-08T10:31:50.758Z,-0.79
2023-02-08T10:34:26.763Z,-0.75
2023-02-08T10:36:53.814Z,-0.68
2023-02-08T10:39:27.466Z,-0.61
2023-02-08T10:41:54.672Z,-0.58
2023-02-08T10:44:28.669Z,-0.51
2023-02-08T10:46:58.788Z,-0.38
2023-02-08T10:49:40.526Z,-0.29
2023-02-08T10:52:07.579Z,-0.27
2023-02-08T10:54:34.983Z,-0.29
2023-02-08T10:57:12.368Z,-0.31
2023-02-08T10:59:53.351Z,-0.31
2023-02-08T11:02:23.256Z,-0.25
2023-02-08T11:05:04.160Z,-0.21
2023-02-08T11:07:31.580Z,-0.19
2023-02-08T11:10:22.081Z,-0.15
2023-02-08T11:13:03.202Z,-0.05
2023-02-08T11:15:38.365Z,0.07
2023-02-08T11:18:06.350Z,0.16
2023-02-08T11:20:36.277Z,0.20
2023-02-08T11:23:05.648Z,0.20
2023-02-08T11:25:38.148Z,0.21
2023-02-08T11:28:21.278Z,0.26
2023-02-08T11:30:55.078Z,0.30
2023-02-08T11:33:22.959Z,0.30
2023-02-08T11:36:00.426Z,0.28
2023-02-08T11:38:27.884Z,0.31
2023-02-08T11:40:57.510Z,0.35
2023-02-08T11:43:27.328Z,0.41
2023-02-08T11:45:54.951Z,0.50
2023-02-08T11:48:52.634Z,0.56
2023-02-08T11:51:35.689Z,0.56
2023-02-08T11:54:03.413Z,0.56
2023-02-08T11:56:31.905Z,0.57
2023-02-08T11:59:03.180Z,0.60
2023-02-08T12:01:38.090Z,0.61
2023-02-08T12:04:06.856Z,0.60
2023-02-08T12:06:53.916Z,0.58
2023-02-08T12:09:29.894Z,0.61
2023-02-08T12:12:24.933Z,0.66
2023-02-08T12:15:15.525Z,0.72
2023-02-08T12:17:51.462Z,0.81
2023-02-08T12:20:37.157Z,0.85
2023-02-08T12:23:27.372Z,0.89
2023-02-08T12:26:32.780Z,0.89
2023-02-08T12:29:14.613Z,0.88
2023-02-08T12:31:50.855Z,0.94
2023-02-08T12:34:55.521Z,1.02
2023-02-08T12:37:47.588Z,1.05
2023-02-08T12:40:46.005Z,1.06
2023-02-08T12:43:35.484Z,1.09
2023-02-08T12:46:11.335Z,1.09
2023-02-08T12:48:54.328Z,1.07
2023-02-08T12:52:18.590Z,1.05
2023-02-08T12:54:56.410Z,1.08
2023-02-08T12:57:24.747Z,1.11
2023-02-08T13:46:53.430Z,1.52
2023-02-08T13:49:39.327Z,1.46
2023-02-08T13:52:10.992Z,1.34
2023-02-08T13:54:38.599Z,1.27
2023-02-08T13:57:55.353Z,1.21
2023-02-08T14:00:29.681Z,1.16
2023-02-08T14:03:02.554Z,1.12
2023-02-08T14:05:50.012Z,1.06
2023-02-08T14:08:29.613Z,1.00
2023-02-08T14:11:06.696Z,0.95
2023-02-08T14:13:35.704Z,0.88
2023-02-08T14:16:48.305Z,0.81
2023-02-08T14:19:15.866Z,0.72
2023-02-08T14:21:44.362Z,0.64
2023-02-08T14:24:28.172Z,0.58
2023-02-08T14:27:20.818Z,0.52
2023-02-08T14:30:01.162Z,0.45
2023-02-08T14:32:30.223Z,0.37
2023-02-08T14:35:00.590Z,0.30
2023-02-08T14:37:29.795Z,0.22
2023-02-08T14:40:25.032Z,0.13
2023-02-08T14:42:53.854Z,0.09
2023-02-08T14:45:36.202Z,0.12
2023-02-08T14:48:30.372Z,0.13
2023-02-08T14:51:10.236Z,0.05
2023-02-08T14:53:54.269Z,-0.04
2023-02-08T14:56:33.192Z,-0.11
2023-02-08T14:59:06.179Z,-0.19
2023-02-08T15:01:53.205Z,-0.25
2023-02-08T15:04:20.493Z,-0.30
2023-02-08T15:06:50.669Z,-0.35
2023-02-08T15:09:25.114Z,-0.40
2023-02-08T15:12:23.466Z,-0.43
2023-02-08T15:14:54.765Z,-0.47
2023-02-08T15:17:44.822Z,-0.50
2023-02-08T15:20:24.348Z,-0.53
2023-02-08T15:23:02.873Z,-0.57
2023-02-08T15:25:34.591Z,-0.59
2023-02-08T15:28:18.580Z,-0.63
2023-02-08T15:30:46.173Z,-0.67
2023-02-08T15:33:16.248Z,-0.70
2023-02-08T15:35:43.886Z,-0.73
2023-02-08T15:38:16.460Z,-0.75
2023-02-08T15:40:43.967Z,-0.78
2023-02-08T15:49:37.641Z,-0.85
2023-02-08T15:52:06.196Z,-0.91
2023-02-08T15:54:34.896Z,-0.95
2023-02-08T15:57:30.104Z,-0.96
2023-02-08T15:59:58.807Z,-0.98
2023-02-08T16:02:53.903Z,-1.00
2023-02-08T16:05:24.753Z,-1.03
2023-02-08T16:07:53.435Z,-1.05
2023-02-08T16:10:28.241Z,-1.08
2023-02-08T16:12:59.318Z,-1.12
2023-02-08T16:15:36.085Z,-1.16
2023-02-08T16:18:04.578Z,-1.20
2023-02-08T16:20:34.912Z,-1.21
2023-02-08T16:23:25.361Z,-1.23
2023-02-08T16:25:54.669Z,-1.26
2023-02-08T16:28:33.469Z,-1.28
2023-02-08T16:31:03.726Z,-1.31
2023-02-08T16:33:32.763Z,-1.35
2023-02-08T16:36:04.473Z,-1.39
2023-02-08T16:38:36.617Z,-1.41
2023-02-08T16:41:12.559Z,-1.43
2023-02-08T16:43:44.704Z,-1.46
2023-02-08T16:46:19.953Z,-1.49
2023-02-08T16:48:55.375Z,-1.52
2023-02-08T16:51:25.443Z,-1.57
2023-02-08T16:53:58.018Z,-1.62
2023-02-08T16:56:26.702Z,-1.68
2023-02-08T16:58:56.827Z,-1.74
2023-02-08T17:01:25.646Z,-1.81
2023-02-08T17:03:55.076Z,-1.88
2023-02-08T17:06:34.732Z,-1.94
2023-02-08T17:09:05.997Z,-2.00
2023-02-08T17:11:35.090Z,-2.05
2023-02-08T17:14:05.324Z,-2.11
2023-02-08T17:16:35.339Z,-2.16
2023-02-08T17:19:04.327Z,-2.20
2023-02-08T17:21:34.371Z,-2.24
2023-02-08T17:24:03.550Z,-2.29
2023-02-08T17:26:38.475Z,-2.33
2023-02-08T17:29:06.886Z,-2.38
2023-02-08T17:31:36.201Z,-2.42
2023-02-08T17:34:05.032Z,-2.46
2023-02-08T17:36:36.796Z,-2.49
2023-02-08T17:39:06.013Z,-2.54
2023-02-08T17:41:35.724Z,-2.57
2023-02-08T17:44:04.587Z,-2.61
2023-02-08T17:46:35.169Z,-2.64
2023-02-08T17:49:04.828Z,-2.69
2023-02-08T17:51:34.636Z,-2.74
2023-02-08T17:54:07.102Z,-2.78
2023-02-08T17:56:37.221Z,-2.81
2023-02-08T17:59:06.425Z,-2.85
2023-02-08T18:01:35.974Z,-2.88
2023-02-08T18:04:04.812Z,-2.90
2023-02-08T18:06:34.809Z,-2.91
2023-02-08T18:09:04.145Z,-2.94
2023-02-08T18:11:32.851Z,-2.96
2023-02-08T18:14:01.409Z,-2.99
2023-02-08T18:16:31.288Z,-3.01
2023-02-08T18:19:02.154Z,-3.03
2023-02-08T18:21:33.593Z,-3.02
2023-02-08T18:24:03.353Z,-3.01
2023-02-08T18:26:33.999Z,-3.00
2023-02-08T18:29:03.702Z,-3.00
2023-02-08T18:31:32.609Z,-2.99
2023-02-08T18:34:02.052Z,-2.98
2023-02-08T18:36:30.930Z,-3.00
2023-02-08T18:38:59.917Z,-3.02
2023-02-08T18:41:29.462Z,-3.03
2023-02-08T18:43:58.540Z,-3.06
2023-02-08T18:46:28.072Z,-3.10
2023-02-08T18:48:56.394Z,-3.14
2023-02-08T18:51:26.006Z,-3.17
2023-02-08T18:53:55.152Z,-3.18
2023-02-08T18:56:25.664Z,-3.22
2023-02-08T18:58:55.538Z,-3.24
2023-02-08T19:01:24.222Z,-3.28
2023-02-08T19:03:53.439Z,-3.32
2023-02-08T19:06:24.945Z,-3.39
2023-02-08T19:08:56.422Z,-3.43
2023-02-08T19:11:25.539Z,-3.48
2023-02-08T19:13:56.109Z,-3.53
2023-02-08T19:16:25.001Z,-3.56
2023-02-08T19:18:54.026Z,-3.60
2023-02-08T19:21:22.917Z,-3.65
2023-02-08T19:23:53.035Z,-3.68
2023-02-08T19:26:23.703Z,-3.72
2023-02-08T19:28:57.946Z,-3.75
2023-02-08T19:31:27.810Z,-3.77
2023-02-08T19:33:59.484Z,-3.81
2023-02-08T19:36:34.294Z,-3.85
2023-02-08T19:39:03.852Z,-3.87
2023-02-08T19:41:35.236Z,-3.89
2023-02-08T19:44:06.783Z,-3.91
2023-02-08T19:46:39.566Z,-3.94
2023-02-08T19:49:08.467Z,-3.97
2023-02-08T19:51:37.672Z,-4.00
2023-02-08T19:54:10.348Z,-4.02
2023-02-08T19:56:41.157Z,-4.05
2023-02-08T19:59:35.286Z,-4.06
2023-02-08T20:02:04.817Z,-4.07
2023-02-08T20:04:34.570Z,-4.09
2023-02-08T20:07:03.980Z,-4.13
2023-02-08T20:09:37.060Z,-4.16
2023-02-08T20:12:05.983Z,-4.20
2023-02-08T20:14:34.920Z,-4.25
2023-02-08T20:17:04.573Z,-4.29
2023-02-08T20:19:36.409Z,-4.30
2023-02-08T20:22:05.405Z,-4.32
2023-02-08T20:24:33.778Z,-4.35
2023-02-08T20:27:02.496Z,-4.38
2023-02-08T20:29:32.369Z,-4.41
2023-02-08T20:32:01.544Z,-4.44
2023-02-08T20:34:30.695Z,-4.46
2023-02-08T20:37:08.220Z,-4.49
2023-02-08T20:39:37.799Z,-4.51
2023-02-08T20:42:06.657Z,-4.54
2023-02-08T20:44:35.248Z,-4.57
2023-02-08T20:47:04.437Z,-4.59
2023-02-08T20:49:33.147Z,-4.61
2023-02-08T20:52:01.749Z,-4.62
2023-02-08T20:54:30.833Z,-4.62
2023-02-08T20:56:59.743Z,-4.65
2023-02-08T20:59:28.595Z,-4.70
2023-02-08T21:01:57.339Z,-4.73
2023-02-08T21:04:27.393Z,-4.75
2023-02-08T21:06:56.274Z,-4.78
2023-02-08T21:09:25.297Z,-4.80
2023-02-08T21:11:54.049Z,-4.79
2023-02-08T21:14:23.730Z,-4.81
2023-02-08T21:16:56.547Z,-4.85
2023-02-08T21:19:26.419Z,-4.88
2023-02-08T21:21:59.238Z,-4.91
2023-02-08T21:24:28.953Z,-4.94
2023-02-08T21:26:57.850Z,-4.95
2023-02-08T21:29:26.407Z,-4.96
2023-02-08T21:31:57.864Z,-4.97
2023-02-08T21:34:26.851Z,-4.99
2023-02-08T21:36:55.699Z,-5.01
2023-02-08T21:39:24.866Z,-5.06
2023-02-08T21:41:55.675Z,-5.10
2023-02-08T21:44:24.195Z,-5.13
2023-02-08T21:46:53.084Z,-5.13
2023-02-08T21:49:40.233Z,-5.13
2023-02-08T21:52:28.773Z,-5.12
2023-02-08T21:54:57.213Z,-5.15
2023-02-08T21:57:27.445Z,-5.16
2023-02-08T22:00:00.113Z,-5.18
2023-02-08T22:02:30.111Z,-5.17
2023-02-08T22:04:59.471Z,-5.17
2023-02-08T22:07:28.651Z,-5.18
2023-02-08T22:09:58.041Z,-5.20
2023-02-08T22:12:28.236Z,-5.23
2023-02-08T22:14:58.044Z,-5.26
2023-02-08T22:17:27.387Z,-5.29
2023-02-08T22:19:55.820Z,-5.30
2023-02-08T22:22:24.330Z,-5.30
2023-02-08T22:24:52.795Z,-5.34
2023-02-08T22:27:22.078Z,-5.36
2023-02-08T22:29:50.554Z,-5.40
2023-02-08T22:32:19.550Z,-5.43
2023-02-08T22:34:48.445Z,-5.47
2023-02-08T22:37:17.223Z,-5.50
2023-02-08T22:39:46.325Z,-5.52
2023-02-08T22:42:15.212Z,-5.54
2023-02-08T22:44:44.540Z,-5.57
2023-02-08T22:47:13.336Z,-5.61
2023-02-08T22:49:42.490Z,-5.64
2023-02-08T22:52:10.975Z,-5.66
2023-02-08T22:54:39.558Z,-5.69
2023-02-08T22:57:10.088Z,-5.69
2023-02-08T22:59:39.220Z,-5.70
2023-02-08T23:02:07.565Z,-5.73
2023-02-08T23:04:37.511Z,-5.76
2023-02-08T23:07:05.956Z,-5.81
2023-02-08T23:09:34.639Z,-5.84
2023-02-08T23:12:03.334Z,-5.87
2023-02-08T23:14:34.876Z,-5.90
2023-02-08T23:17:03.597Z,-5.92
2023-02-08T23:19:32.240Z,-5.94
2023-02-08T23:22:00.820Z,-5.97
2023-02-08T23:24:29.711Z,-5.99
2023-02-08T23:26:58.602Z,-6.01
2023-02-08T23:29:27.394Z,-6.03
2023-02-08T23:31:56.323Z,-6.03
2023-02-08T23:34:25.360Z,-6.04
2023-02-08T23:36:53.745Z,-6.06
2023-02-08T23:39:22.337Z,-6.07
2023-02-08T23:41:51.765Z,-6.09
2023-02-08T23:44:20.227Z,-6.10
2023-02-08T23:46:49.057Z,-6.10
2023-02-08T23:49:17.892Z,-6.08
2023-02-08T23:51:46.694Z,-6.10
2023-02-08T23:54:15.671Z,-6.11
2023-02-08T23:56:44.256Z,-6.13
2023-02-08T23:59:13.150Z,-6.15
